Pompeii, Michigan
Current Conditions -  °F | °C
As of 12:11 AM on Sunday 26 Oct 2014 (Local Time) from KAMN Reporting Station
Clear Clear  
Wind Chill: 51°   Ceiling: Unl
Heat Index: 51°   Visibility: 10mi
Dew Point: 31°   Wind: 9mph
Humidity: 47%   Direction: 300°WNW
Pressure: 29.85"   Gusts: NA
Location:  43.18°N, 84.6°W
Report Text: KAMN 260411Z AUTO 30008KT 10SM CLR 11/00 A2985 RMK AO2 T01051005
Loading
Personal Weather Stations






























Interactive Weather Map
Tropical Storm Tracking
New forecast layout! Learn more

10-Day Weather Forecast

Advertisements
Track Severe Weather on mobile